Time;durP1;ratioP1;P1;durP2;ratioP2;P2;SDS_P1;SDS_P2;PMS_P1;PMS_P2;Temp;Humidity;BMP_temperature;BMP_pressure;BME280_temperature;BME280_humidity;BME280_pressure;Samples;Min_cycle;Max_cycle;Signal;HPM_P1;HPM_P2
2023/03/20 00:01:25;;;;;;;10.43;4.93;;;;;;;13.76;61.57;97656.00;5030435;28;20871;-70
2023/03/20 00:03:50;;;;;;;5.83;5.20;;;;;;;13.80;61.88;97652.03;5044662;28;20411;-69
2023/03/20 00:06:17;;;;;;;7.17;5.30;;;;;;;13.83;61.78;97661.44;5046567;28;20837;-72
2023/03/20 00:08:44;;;;;;;7.13;4.83;;;;;;;13.89;61.81;97654.69;5058437;28;20591;-70
2023/03/20 00:11:33;;;;;;;4.70;4.27;;;;;;;13.89;61.63;97658.13;5055294;28;20483;-69
2023/03/20 00:14:05;;;;;;;5.20;4.70;;;;;;;13.91;60.98;97663.28;5045597;28;20916;-70
2023/03/20 00:16:33;;;;;;;5.00;4.40;;;;;;;13.65;61.83;97662.38;5054862;28;20459;-70
2023/03/20 00:18:58;;;;;;;6.07;4.80;;;;;;;13.67;61.73;97660.41;5047865;28;20480;-70
2023/03/20 00:21:25;;;;;;;9.53;4.37;;;;;;;13.64;62.34;97657.28;5040566;28;20453;-70
2023/03/20 00:23:50;;;;;;;6.77;4.43;;;;;;;13.75;62.17;97666.66;5053534;28;20213;-71
2023/03/20 00:26:17;;;;;;;8.77;4.13;;;;;;;13.69;61.56;97667.31;5053419;28;20461;-69
2023/03/20 00:28:44;;;;;;;4.40;4.00;;;;;;;13.73;61.60;97666.03;5046655;28;20285;-70
2023/03/20 00:31:27;;;;;;;4.20;3.80;;;;;;;13.75;61.56;97664.03;5047960;28;20829;-71
2023/03/20 00:33:59;;;;;;;3.73;3.40;;;;;;;13.80;60.95;97656.50;5047512;28;20417;-70
2023/03/20 00:36:25;;;;;;;3.50;3.20;;;;;;;13.77;60.66;97668.19;5051510;28;20511;-70
2023/03/20 00:38:50;;;;;;;3.53;3.20;;;;;;;13.74;60.34;97655.31;5048128;28;20457;-70
2023/03/20 00:41:19;;;;;;;4.30;3.37;;;;;;;13.75;60.37;97670.16;5048340;28;20206;-70
2023/03/20 00:43:47;;;;;;;3.97;3.37;;;;;;;13.81;59.83;97671.31;5042406;28;20189;-70
2023/03/20 00:46:13;;;;;;;2.80;2.60;;;;;;;13.79;59.73;97678.53;5030760;28;20897;-69
2023/03/20 00:48:40;;;;;;;3.00;2.80;;;;;;;13.78;60.24;97676.91;5048033;28;20479;-69
2023/03/20 00:51:06;;;;;;;3.10;2.90;;;;;;;13.71;60.48;97673.28;5036819;28;20210;-69
2023/03/20 00:53:31;;;;;;;5.03;4.00;;;;;;;13.67;61.25;97665.69;5047341;28;20422;-70
2023/03/20 00:55:57;;;;;;;4.77;4.23;;;;;;;13.65;61.19;97669.47;5040596;28;20206;-71
2023/03/20 00:58:22;;;;;;;4.50;4.10;;;;;;;13.63;61.40;97671.44;5054073;28;20198;-70
2023/03/20 01:00:48;;;;;;;4.30;3.53;;;;;;;13.60;61.59;97672.59;5045973;28;20920;-70
2023/03/20 01:03:18;;;;;;;3.60;3.00;;;;;;;13.64;61.43;97668.63;5036353;28;20184;-70
2023/03/20 01:05:44;;;;;;;3.87;3.47;;;;;;;13.63;61.46;97669.59;5045097;28;20190;-71
2023/03/20 01:08:15;;;;;;;4.40;3.60;;;;;;;13.65;61.35;97664.19;5041227;28;20560;-70
2023/03/20 01:10:41;;;;;;;3.67;3.37;;;;;;;13.64;61.17;97667.81;5047097;28;20429;-70
2023/03/20 01:13:20;;;;;;;4.00;3.10;;;;;;;13.65;60.63;97669.47;5050330;28;20420;-70
2023/03/20 01:15:47;;;;;;;3.70;3.40;;;;;;;13.61;60.63;97674.22;5040585;28;20430;-71
2023/03/20 01:18:14;;;;;;;3.77;2.97;;;;;;;13.64;59.97;97670.44;5040695;28;20449;-70
2023/03/20 01:20:39;;;;;;;5.27;3.40;;;;;;;13.58;60.29;97669.28;5047430;28;20520;-69
2023/03/20 01:23:05;;;;;;;3.57;3.03;;;;;;;13.55;60.47;97668.75;5060509;28;20599;-70
2023/03/20 01:25:30;;;;;;;3.33;2.83;;;;;;;13.60;61.05;97666.47;5042903;28;20597;-71
2023/03/20 01:27:56;;;;;;;6.07;3.70;;;;;;;13.63;60.96;97671.44;5050313;28;20189;-70
2023/03/20 01:30:28;;;;;;;4.73;3.60;;;;;;;13.54;60.91;97672.41;5055991;28;20179;-70
2023/03/20 01:32:54;;;;;;;3.10;2.90;;;;;;;13.57;60.56;97665.00;5049804;28;20867;-69
2023/03/20 01:35:21;;;;;;;3.00;2.70;;;;;;;13.63;59.73;97672.25;5051488;28;20425;-71
2023/03/20 01:37:47;;;;;;;3.13;2.83;;;;;;;13.66;59.41;97668.50;5047559;28;20449;-71
2023/03/20 01:40:19;;;;;;;3.67;2.60;;;;;;;13.64;59.50;97673.91;5046064;28;20425;-70
2023/03/20 01:42:45;;;;;;;7.80;2.33;;;;;;;13.63;59.70;97676.69;5045372;28;20580;-70
2023/03/20 01:45:19;;;;;;;2.80;2.40;;;;;;;13.65;60.07;97678.19;5056686;28;20500;-70
2023/03/20 01:47:46;;;;;;;5.13;2.57;;;;;;;13.70;59.20;97680.31;5043680;28;20225;-71
2023/03/20 01:50:27;;;;;;;2.73;2.27;;;;;;;13.65;59.14;97672.91;5050038;28;20454;-69
2023/03/20 01:53:01;;;;;;;2.73;1.90;;;;;;;13.63;58.62;97672.25;5052983;28;20468;-69
2023/03/20 01:55:27;;;;;;;1.80;1.70;;;;;;;13.64;58.84;97679.16;5050485;28;20421;-70
2023/03/20 01:57:54;;;;;;;2.30;2.10;;;;;;;13.63;59.03;97669.59;5040749;28;20464;-69
2023/03/20 02:00:20;;;;;;;1.93;1.83;;;;;;;13.65;59.01;97680.00;5049792;28;20426;-69
2023/03/20 02:02:47;;;;;;;2.60;1.90;;;;;;;13.63;58.93;97676.69;5050054;28;21051;-69
2023/03/20 02:05:15;;;;;;;2.00;1.67;;;;;;;13.66;58.74;97682.47;5053115;28;20210;-71
2023/03/20 02:07:42;;;;;;;3.17;1.80;;;;;;;13.69;58.69;97686.59;5055812;28;20834;-71
2023/03/20 02:10:11;;;;;;;2.43;2.23;;;;;;;13.72;59.01;97688.09;5051154;28;20421;-70
2023/03/20 02:12:37;;;;;;;4.43;2.47;;;;;;;13.75;59.70;97700.91;5055455;28;20436;-71
2023/03/20 02:15:05;;;;;;;2.73;2.53;;;;;;;13.73;59.89;97709.00;5055200;28;20437;-71
2023/03/20 02:17:31;;;;;;;4.80;3.23;;;;;;;13.51;60.89;97697.22;5047178;28;20456;-69
2023/03/20 02:20:19;;;;;;;4.70;3.80;;;;;;;13.46;61.37;97697.69;5053955;28;20438;-70
2023/03/20 02:23:22;;;;;;;3.20;3.00;;;;;;;13.49;61.34;97704.44;5047631;28;20506;-71
2023/03/20 02:25:59;;;;;;;5.43;3.30;;;;;;;13.54;61.21;97704.81;5049691;28;20520;-69
2023/03/20 02:28:48;;;;;;;3.90;3.17;;;;;;;13.48;61.56;97703.63;5043626;28;20605;-70
2023/03/20 02:31:35;;;;;;;5.30;3.60;;;;;;;13.46;61.54;97710.06;5037606;28;20532;-71
2023/03/20 02:34:04;;;;;;;3.47;3.17;;;;;;;13.45;61.59;97705.78;5040313;28;20512;-70
2023/03/20 02:36:50;;;;;;;4.73;2.90;;;;;;;13.34;62.03;97705.03;5044661;28;20542;-70
2023/03/20 02:39:50;;;;;;;15.17;3.10;;;;;;;13.41;62.08;97707.91;5035702;28;20454;-70
2023/03/20 02:42:30;;;;;;;2.80;2.60;;;;;;;13.45;61.96;97711.03;5037722;28;20496;-70
2023/03/20 02:45:22;;;;;;;3.20;2.83;;;;;;;13.47;61.77;97709.06;5041098;28;20486;-69
2023/03/20 02:47:54;;;;;;;3.47;3.17;;;;;;;13.47;61.59;97709.06;5056581;28;20890;-70
2023/03/20 02:50:35;;;;;;;3.60;3.00;;;;;;;13.42;61.76;97703.44;5048864;28;21067;-69
2023/03/20 02:53:25;;;;;;;5.33;2.40;;;;;;;13.41;61.80;97696.53;5040257;28;21029;-70
2023/03/20 02:56:16;;;;;;;2.40;2.20;;;;;;;13.28;61.64;97697.75;5049421;28;20422;-70
2023/03/20 02:59:21;;;;;;;3.80;1.50;;;;;;;13.37;60.12;97701.25;5045974;28;20450;-70
2023/03/20 03:01:51;;;;;;;1.23;1.00;;;;;;;13.40;58.60;97705.41;5044336;28;20460;-69
2023/03/20 03:04:18;;;;;;;1.40;1.00;;;;;;;13.33;59.22;97707.81;5044964;28;20421;-70
2023/03/20 03:06:46;;;;;;;2.70;1.97;;;;;;;13.19;59.94;97706.59;5049796;28;20500;-69
2023/03/20 03:09:37;;;;;;;3.13;2.83;;;;;;;13.10;61.79;97705.72;5046190;28;20469;-71
2023/03/20 03:12:06;;;;;;;4.10;2.60;;;;;;;13.23;61.98;97715.00;5041407;28;20457;-69
2023/03/20 03:15:03;;;;;;;2.70;2.30;;;;;;;13.22;62.22;97708.94;5039891;28;20877;-69
2023/03/20 03:17:31;;;;;;;3.13;2.70;;;;;;;13.28;62.25;97712.75;5028248;28;20473;-69
2023/03/20 03:20:04;;;;;;;2.47;2.27;;;;;;;13.31;62.32;97710.63;5047303;28;20422;-70
2023/03/20 03:22:33;;;;;;;2.10;2.00;;;;;;;13.34;61.56;97710.31;5051212;28;20450;-71
2023/03/20 03:24:58;;;;;;;1.60;1.50;;;;;;;13.34;61.75;97720.84;5047564;28;20426;-70
2023/03/20 03:27:27;;;;;;;3.77;1.87;;;;;;;13.32;61.62;97716.69;5047635;28;20477;-69
2023/03/20 03:30:02;;;;;;;1.80;1.70;;;;;;;13.33;61.35;97718.34;5047909;28;20187;-70
2023/03/20 03:32:33;;;;;;;1.97;1.77;;;;;;;13.27;61.05;97716.34;5035989;28;20450;-70
2023/03/20 03:35:00;;;;;;;3.20;1.90;;;;;;;13.30;61.06;97722.13;5058814;28;20416;-71
2023/03/20 03:37:34;;;;;;;1.83;1.73;;;;;;;13.19;61.33;97719.75;5054100;28;20463;-71
2023/03/20 03:40:14;;;;;;;3.17;1.80;;;;;;;13.24;61.82;97722.72;5056404;28;20443;-70
2023/03/20 03:42:50;;;;;;;2.73;2.40;;;;;;;13.16;61.98;97728.81;5051267;28;20989;-71
2023/03/20 03:45:18;;;;;;;5.00;2.10;;;;;;;13.23;61.95;97730.78;5047673;28;20444;-70
2023/03/20 03:48:00;;;;;;;2.43;2.23;;;;;;;13.23;62.23;97726.38;5038941;28;20923;-67
2023/03/20 03:50:31;;;;;;;10.30;2.43;;;;;;;13.17;62.40;97734.88;5046215;28;20457;-72
2023/03/20 03:52:59;;;;;;;6.53;2.00;;;;;;;13.25;62.18;97742.00;5043550;28;20899;-70
2023/03/20 03:55:27;;;;;;;3.10;2.67;;;;;;;13.24;62.41;97730.63;5041092;28;20421;-70
2023/03/20 03:57:59;;;;;;;2.30;2.20;;;;;;;13.25;62.27;97736.75;5044791;28;20862;-69
2023/03/20 04:00:26;;;;;;;4.37;2.37;;;;;;;13.20;62.51;97729.31;5047694;28;20430;-70
2023/03/20 04:02:56;;;;;;;5.83;1.80;;;;;;;13.16;62.10;97734.06;5040375;28;20950;-71
2023/03/20 04:05:24;;;;;;;1.60;1.50;;;;;;;13.18;62.47;97733.91;5048518;28;20814;-71
2023/03/20 04:07:54;;;;;;;1.20;1.00;;;;;;;13.14;61.54;97736.03;5046856;28;20422;-71
2023/03/20 04:10:20;;;;;;;1.20;1.10;;;;;;;13.01;60.96;97740.88;5032485;28;20534;-70
2023/03/20 04:12:45;;;;;;;1.20;1.10;;;;;;;13.07;61.00;97748.13;5033270;28;21002;-70
2023/03/20 04:15:12;;;;;;;1.47;1.00;;;;;;;13.15;60.19;97745.56;5038945;28;20183;-71
2023/03/20 04:17:38;;;;;;;1.20;1.10;;;;;;;13.18;59.73;97749.69;5040008;28;20289;-71
2023/03/20 04:20:04;;;;;;;3.27;1.07;;;;;;;13.17;58.12;97745.41;5045214;28;20820;-71
2023/03/20 04:22:30;;;;;;;0.93;0.83;;;;;;;13.15;58.25;97747.38;5036999;28;20253;-70
2023/03/20 04:24:55;;;;;;;1.40;1.00;;;;;;;13.20;58.54;97743.28;5045332;28;20421;-71
2023/03/20 04:27:21;;;;;;;2.20;1.00;;;;;;;13.20;58.82;97745.09;5037143;28;20279;-70
2023/03/20 04:29:46;;;;;;;1.20;1.10;;;;;;;13.20;58.31;97734.56;5038786;28;20826;-70
2023/03/20 04:32:12;;;;;;;2.50;1.07;;;;;;;13.16;59.03;97728.81;5038760;28;20712;-70
2023/03/20 04:34:37;;;;;;;2.60;1.00;;;;;;;13.20;58.92;97724.06;5049148;28;20187;-70
2023/03/20 04:37:04;;;;;;;1.57;0.97;;;;;;;13.22;59.15;97724.72;5044354;28;20636;-70
2023/03/20 04:39:30;;;;;;;1.47;1.10;;;;;;;13.18;59.28;97726.81;5027788;28;20179;-69
2023/03/20 04:41:55;;;;;;;1.10;1.00;;;;;;;13.16;58.97;97717.44;5037566;28;20445;-70
2023/03/20 04:44:21;;;;;;;1.00;0.80;;;;;;;13.21;58.86;97720.44;5043362;28;20869;-70
2023/03/20 04:46:46;;;;;;;1.00;0.90;;;;;;;13.21;58.46;97718.63;5041122;28;20230;-71
2023/03/20 04:49:12;;;;;;;0.90;0.80;;;;;;;13.28;58.29;97731.97;5047342;28;20206;-70
2023/03/20 04:51:37;;;;;;;1.80;1.70;;;;;;;13.19;58.23;97725.84;5042815;28;20337;-70
2023/03/20 04:54:03;;;;;;;2.13;1.93;;;;;;;13.22;58.41;97727.34;5045594;28;20179;-70
2023/03/20 04:56:28;;;;;;;2.50;1.67;;;;;;;13.23;58.63;97730.78;5044668;28;20271;-70
2023/03/20 04:58:54;;;;;;;2.73;1.20;;;;;;;13.19;58.73;97723.22;5042708;28;20779;-71
2023/03/20 05:01:19;;;;;;;3.73;1.40;;;;;;;13.19;59.04;97738.19;5050444;28;20207;-70
2023/03/20 05:03:45;;;;;;;1.23;1.13;;;;;;;13.16;59.43;97743.75;5054300;28;20182;-70
2023/03/20 05:06:10;;;;;;;1.80;1.10;;;;;;;13.15;59.72;97750.00;5040174;28;20187;-70
2023/03/20 05:08:36;;;;;;;8.03;1.20;;;;;;;13.10;60.59;97750.47;5051312;28;20191;-70
2023/03/20 05:11:01;;;;;;;4.90;1.27;;;;;;;13.09;60.42;97748.00;5040506;28;20618;-71
2023/03/20 05:13:27;;;;;;;2.80;1.30;;;;;;;13.05;60.76;97756.19;5049242;28;20194;-70
2023/03/20 05:15:52;;;;;;;1.37;1.07;;;;;;;13.09;60.79;97758.53;5043948;28;20568;-70
2023/03/20 05:18:18;;;;;;;1.20;1.10;;;;;;;13.05;60.74;97764.09;5044826;28;20218;-70
2023/03/20 05:20:43;;;;;;;2.03;1.40;;;;;;;12.94;61.01;97771.41;5052902;28;20206;-71
2023/03/20 05:23:09;;;;;;;2.17;1.40;;;;;;;12.87;61.79;97765.91;5049866;28;20198;-71
2023/03/20 05:25:34;;;;;;;1.40;1.30;;;;;;;12.92;61.81;97770.75;5057226;28;20265;-68
2023/03/20 05:28:00;;;;;;;4.83;1.70;;;;;;;12.74;62.44;97768.97;5044881;28;20253;-69
2023/03/20 05:30:25;;;;;;;2.33;1.60;;;;;;;12.62;63.08;97768.34;5051012;28;20269;-70
2023/03/20 05:32:51;;;;;;;2.67;1.27;;;;;;;12.65;63.00;97769.88;5053525;28;20628;-71
2023/03/20 05:35:17;;;;;;;1.70;1.60;;;;;;;12.59;63.32;97772.13;5046186;28;20203;-70
2023/03/20 05:37:43;;;;;;;2.93;1.30;;;;;;;12.60;62.22;97767.72;5047067;28;20237;-70
2023/03/20 05:40:12;;;;;;;1.53;1.23;;;;;;;12.64;62.57;97760.34;5047175;28;20429;-71
2023/03/20 05:42:37;;;;;;;8.47;3.80;;;;;;;12.60;62.56;97749.31;5052497;28;20210;-71
2023/03/20 05:45:03;;;;;;;72.00;38.33;;;;;;;12.64;62.67;97761.16;5049714;28;20475;-70
2023/03/20 05:47:29;;;;;;;37.90;20.70;;;;;;;12.73;62.45;97759.41;5045008;28;20191;-70
2023/03/20 05:49:54;;;;;;;17.80;9.00;;;;;;;12.75;62.20;97766.16;5043276;28;20822;-70
2023/03/20 05:52:20;;;;;;;16.03;8.07;;;;;;;12.83;61.82;97772.50;5042796;28;20203;-71
2023/03/20 05:54:46;;;;;;;27.60;14.80;;;;;;;12.84;61.96;97776.78;5050595;28;20179;-71
2023/03/20 05:57:12;;;;;;;19.97;12.33;;;;;;;12.87;62.18;97779.91;5048653;28;20606;-70
2023/03/20 05:59:37;;;;;;;12.40;8.87;;;;;;;12.87;62.06;97769.38;5050318;28;20240;-69
2023/03/20 06:02:03;;;;;;;6.70;4.63;;;;;;;12.86;62.15;97780.88;5037232;28;20533;-70
2023/03/20 06:04:28;;;;;;;2.83;2.63;;;;;;;12.94;62.24;97793.28;5045244;28;20706;-71
2023/03/20 06:06:54;;;;;;;9.40;2.30;;;;;;;12.98;62.16;97794.59;5043593;28;20179;-71
2023/03/20 06:09:19;;;;;;;3.27;1.60;;;;;;;12.99;61.98;97792.81;5040624;28;20652;-71
2023/03/20 06:11:45;;;;;;;1.40;1.27;;;;;;;12.94;61.93;97787.19;5044402;28;20203;-71
2023/03/20 06:14:10;;;;;;;2.07;1.87;;;;;;;12.94;62.07;97784.56;5051264;28;20191;-70
2023/03/20 06:16:36;;;;;;;4.60;2.30;;;;;;;13.00;61.78;97795.28;5043981;28;20269;-70
2023/03/20 06:19:01;;;;;;;2.10;1.90;;;;;;;13.07;62.16;97795.50;5047573;28;20210;-70
2023/03/20 06:21:27;;;;;;;2.40;1.73;;;;;;;13.08;61.82;97793.72;5036567;28;20219;-69
2023/03/20 06:23:53;;;;;;;5.10;2.13;;;;;;;13.10;60.96;97789.13;5041479;28;20258;-70
2023/03/20 06:26:19;;;;;;;40.07;23.73;;;;;;;13.04;62.22;97794.00;5037776;28;20179;-70
2023/03/20 06:28:45;;;;;;;42.40;27.80;;;;;;;13.03;62.28;97791.53;5033605;28;20452;-71
2023/03/20 06:31:10;;;;;;;38.23;29.00;;;;;;;12.87;63.67;97792.22;5051881;28;20463;-70
2023/03/20 06:33:36;;;;;;;13.50;10.87;;;;;;;12.97;63.37;97786.88;5031736;28;20194;-70
2023/03/20 06:36:03;;;;;;;15.60;10.40;;;;;;;13.09;63.19;97790.09;5040658;28;20188;-72
2023/03/20 06:38:28;;;;;;;6.00;5.40;;;;;;;13.11;62.57;97788.13;5037205;28;20457;-71
2023/03/20 06:40:53;;;;;;;4.80;4.33;;;;;;;13.11;62.50;97786.31;5033313;28;20517;-71
2023/03/20 06:43:19;;;;;;;12.90;11.47;;;;;;;13.18;61.76;97783.91;5053274;28;20182;-71
2023/03/20 06:45:45;;;;;;;9.60;8.20;;;;;;;13.15;61.80;97784.22;5038276;28;20763;-70
2023/03/20 06:48:10;;;;;;;12.87;11.67;;;;;;;13.25;61.79;97784.13;5042959;28;20228;-70
2023/03/20 06:50:36;;;;;;;11.20;10.00;;;;;;;13.31;61.39;97792.22;5035673;28;20223;-71
2023/03/20 06:53:02;;;;;;;7.63;5.20;;;;;;;13.35;61.46;97792.72;5042443;28;20293;-71
2023/03/20 06:55:28;;;;;;;3.53;2.93;;;;;;;13.43;60.68;97791.97;5033630;28;20203;-70
2023/03/20 06:57:53;;;;;;;2.50;2.30;;;;;;;13.50;60.13;97793.00;5041641;28;21100;-68
2023/03/20 07:00:20;;;;;;;3.03;1.83;;;;;;;13.49;59.24;97791.34;5038166;28;20195;-69
2023/03/20 07:02:47;;;;;;;2.80;1.30;;;;;;;13.56;59.32;97784.47;5031056;28;20286;-71
2023/03/20 07:05:12;;;;;;;3.60;1.83;;;;;;;13.70;58.78;97792.78;5045319;28;20970;-71
2023/03/20 07:07:38;;;;;;;3.33;1.60;;;;;;;13.67;58.44;97799.19;5040602;28;20549;-69
2023/03/20 07:10:04;;;;;;;6.13;1.50;;;;;;;13.83;57.61;97798.44;5039367;28;20266;-70
2023/03/20 07:12:29;;;;;;;2.10;1.90;;;;;;;13.92;57.58;97808.00;5038279;28;20203;-71
2023/03/20 07:14:55;;;;;;;3.00;1.63;;;;;;;13.93;57.15;97806.19;5045032;28;20294;-69
2023/03/20 07:17:21;;;;;;;1.83;1.60;;;;;;;14.03;57.61;97806.06;5038223;28;20329;-70
2023/03/20 07:19:47;;;;;;;2.17;1.80;;;;;;;14.15;56.92;97806.63;5040436;28;20241;-70
2023/03/20 07:22:26;;;;;;;3.73;1.30;;;;;;;14.18;56.44;97822.94;5045952;28;20449;-71
2023/03/20 07:24:51;;;;;;;1.40;1.30;;;;;;;14.15;55.34;97819.78;5047153;28;20188;-71
2023/03/20 07:27:17;;;;;;;2.63;2.43;;;;;;;14.20;56.17;97826.25;5042142;28;20415;-72
2023/03/20 07:29:43;;;;;;;2.40;2.20;;;;;;;14.27;56.05;97827.22;5047624;28;20187;-72
2023/03/20 07:32:08;;;;;;;2.33;1.77;;;;;;;14.28;55.77;97822.81;5045151;28;20218;-71
2023/03/20 07:34:34;;;;;;;3.80;1.73;;;;;;;14.21;56.40;97824.41;5039491;28;20238;-70
2023/03/20 07:37:00;;;;;;;2.73;1.50;;;;;;;14.25;56.37;97820.47;5032146;28;20183;-71
2023/03/20 07:39:26;;;;;;;2.03;1.50;;;;;;;14.13;56.09;97819.94;5044118;28;20766;-71
2023/03/20 07:41:51;;;;;;;3.53;1.53;;;;;;;14.19;55.55;97819.31;5045341;28;20219;-71
2023/03/20 07:44:18;;;;;;;1.60;1.50;;;;;;;14.22;55.22;97824.28;5047709;28;20433;-71
2023/03/20 07:46:45;;;;;;;1.80;1.70;;;;;;;14.33;55.17;97815.22;5034207;28;20270;-71
2023/03/20 07:49:12;;;;;;;1.97;1.70;;;;;;;14.38;55.33;97814.72;5035728;28;20422;-71
2023/03/20 07:51:38;;;;;;;2.10;1.90;;;;;;;14.48;55.52;97812.78;5033063;28;20449;-71
2023/03/20 07:54:03;;;;;;;3.10;1.73;;;;;;;14.59;55.67;97820.38;5029252;28;20812;-70
2023/03/20 07:56:29;;;;;;;1.60;1.50;;;;;;;14.67;55.19;97816.97;5038887;28;20597;-71
2023/03/20 07:58:54;;;;;;;5.00;1.63;;;;;;;14.73;55.14;97821.59;5045108;28;20211;-71
2023/03/20 08:01:20;;;;;;;2.50;1.37;;;;;;;14.82;55.14;97819.78;5047998;28;20286;-71
2023/03/20 08:03:46;;;;;;;2.07;1.87;;;;;;;14.94;55.38;97816.81;5044121;28;20195;-72
2023/03/20 08:06:11;;;;;;;6.03;2.00;;;;;;;14.98;55.39;97818.13;5038752;28;20561;-71
2023/03/20 08:08:37;;;;;;;1.87;1.50;;;;;;;15.07;55.41;97817.13;5037209;28;20679;-72
2023/03/20 08:11:02;;;;;;;6.03;1.77;;;;;;;15.04;54.87;97817.47;5036130;28;20608;-70
2023/03/20 08:13:27;;;;;;;2.23;1.97;;;;;;;15.09;53.90;97812.53;5042615;28;20210;-71
2023/03/20 08:15:53;;;;;;;2.30;1.70;;;;;;;15.13;53.38;97821.72;5035275;28;20184;-71
2023/03/20 08:18:21;;;;;;;5.83;1.70;;;;;;;15.10;52.44;97816.81;5046458;28;20304;-71
2023/03/20 08:20:49;;;;;;;2.70;1.73;;;;;;;15.07;52.76;97819.78;5043698;28;20703;-70
2023/03/20 08:23:15;;;;;;;2.93;1.70;;;;;;;15.06;52.61;97823.41;5023884;28;20816;-70
2023/03/20 08:25:41;;;;;;;3.33;1.70;;;;;;;14.98;52.29;97828.69;5044674;28;20425;-71
2023/03/20 08:28:06;;;;;;;2.73;1.30;;;;;;;14.99;52.75;97827.69;5029342;28;20469;-71
2023/03/20 08:30:31;;;;;;;5.27;1.50;;;;;;;14.97;52.93;97827.03;5026884;28;20204;-71
2023/03/20 08:32:57;;;;;;;1.70;1.60;;;;;;;15.03;52.96;97827.19;5022882;28;20348;-70
2023/03/20 08:35:23;;;;;;;1.53;1.43;;;;;;;15.09;52.79;97831.00;5029233;28;20188;-71
2023/03/20 08:37:49;;;;;;;3.73;1.97;;;;;;;15.18;52.50;97819.44;5032021;28;20206;-70
2023/03/20 08:40:15;;;;;;;2.00;1.80;;;;;;;15.25;52.30;97824.88;5039912;28;20187;-71
2023/03/20 08:42:41;;;;;;;1.60;1.50;;;;;;;15.30;51.98;97821.72;5043895;28;20203;-70
2023/03/20 08:45:07;;;;;;;3.23;1.73;;;;;;;15.28;51.52;97818.41;5046649;28;20971;-71
2023/03/20 08:47:32;;;;;;;2.47;1.80;;;;;;;15.12;50.56;97819.28;5045858;28;20191;-70
2023/03/20 08:49:58;;;;;;;2.70;1.60;;;;;;;15.25;50.83;97821.41;5048179;28;20511;-71
2023/03/20 08:52:23;;;;;;;3.87;1.80;;;;;;;15.36;50.68;97819.25;5035951;28;20209;-71
2023/03/20 08:54:49;;;;;;;1.67;1.57;;;;;;;15.43;49.70;97819.38;5036281;28;20206;-70
2023/03/20 08:57:14;;;;;;;2.27;1.40;;;;;;;15.48;49.46;97819.72;5039826;28;20195;-70
2023/03/20 08:59:40;;;;;;;2.00;1.80;;;;;;;15.66;49.50;97821.31;5047151;28;20183;-70
2023/03/20 09:02:06;;;;;;;1.97;1.63;;;;;;;15.78;49.13;97822.59;5041050;28;20214;-71
2023/03/20 09:04:31;;;;;;;2.57;1.67;;;;;;;15.97;48.82;97816.09;5038146;28;20202;-71
2023/03/20 09:06:57;;;;;;;11.73;2.20;;;;;;;16.12;47.40;97816.22;5043415;28;20648;-70
2023/03/20 09:09:28;;;;;;;2.30;1.97;;;;;;;16.35;47.62;97819.88;5049903;28;20198;-71
2023/03/20 09:11:56;;;;;;;5.23;1.83;;;;;;;16.55;47.23;97814.97;5039216;28;20241;-70
2023/03/20 09:14:22;;;;;;;1.60;1.50;;;;;;;16.66;46.48;97822.50;5040589;28;20460;-70
2023/03/20 09:16:48;;;;;;;1.90;1.60;;;;;;;16.72;45.86;97826.25;5045587;28;20425;-71
2023/03/20 09:19:14;;;;;;;2.13;1.93;;;;;;;16.69;45.99;97827.44;5051341;28;20491;-73
2023/03/20 09:21:39;;;;;;;2.00;1.90;;;;;;;16.66;46.31;97827.00;5035588;28;20833;-71
2023/03/20 09:24:05;;;;;;;3.07;2.00;;;;;;;16.65;46.27;97835.91;5045279;28;20270;-71
2023/03/20 09:26:31;;;;;;;1.83;1.73;;;;;;;16.40;46.24;97838.72;5045296;28;20206;-72
2023/03/20 09:28:56;;;;;;;3.77;2.10;;;;;;;16.15;47.62;97830.06;5044255;28;20270;-71
2023/03/20 09:31:22;;;;;;;3.10;1.80;;;;;;;16.23;47.50;97835.34;5056172;28;20227;-71
2023/03/20 09:33:47;;;;;;;3.23;2.20;;;;;;;16.27;47.71;97833.97;5032152;28;20249;-71
2023/03/20 09:36:14;;;;;;;2.80;2.40;;;;;;;16.19;46.70;97831.38;5040226;28;20652;-71
2023/03/20 09:38:41;;;;;;;1.70;1.60;;;;;;;16.21;46.82;97835.50;5038292;28;20620;-71
2023/03/20 09:41:14;;;;;;;3.50;2.60;;;;;;;16.19;46.83;97832.19;5038614;28;21051;-72
2023/03/20 09:43:54;;;;;;;2.93;2.63;;;;;;;16.29;46.66;97829.34;5054958;28;20417;-71
2023/03/20 09:46:48;;;;;;;2.90;2.43;;;;;;;16.39;46.67;97832.59;5048417;28;20416;-72
2023/03/20 09:49:34;;;;;;;2.53;2.33;;;;;;;16.52;46.55;97836.47;5051020;28;20849;-71
2023/03/20 09:52:03;;;;;;;2.47;2.07;;;;;;;16.56;45.74;97830.69;5052917;28;20446;-71
2023/03/20 09:54:35;;;;;;;2.90;2.00;;;;;;;16.68;46.07;97827.63;5036233;28;20477;-71
2023/03/20 09:57:01;;;;;;;1.90;1.77;;;;;;;16.61;45.22;97832.81;5035422;28;20429;-70
2023/03/20 09:59:27;;;;;;;2.60;2.33;;;;;;;16.66;45.80;97829.63;5037158;28;20877;-71
2023/03/20 10:01:55;;;;;;;4.70;2.30;;;;;;;16.37;45.87;97831.13;5039701;28;20957;-70
2023/03/20 10:04:23;;;;;;;2.47;2.03;;;;;;;16.32;45.25;97836.94;5041846;28;20452;-71
2023/03/20 10:06:48;;;;;;;1.70;1.60;;;;;;;16.51;45.57;97840.97;5044080;28;20426;-71
2023/03/20 10:09:22;;;;;;;2.53;1.90;;;;;;;16.57;45.71;97839.44;5036047;28;20428;-71
2023/03/20 10:12:23;;;;;;;2.00;1.80;;;;;;;16.70;45.19;97829.09;5041467;28;20199;-71
2023/03/20 10:14:51;;;;;;;2.93;2.07;;;;;;;16.77;44.84;97825.72;5057507;28;20420;-72
2023/03/20 10:17:39;;;;;;;3.67;1.90;;;;;;;16.91;44.97;97827.63;5042155;28;20577;-70
2023/03/20 10:20:31;;;;;;;2.40;1.90;;;;;;;17.07;44.59;97832.00;5044072;28;20426;-71
2023/03/20 10:23:12;;;;;;;4.30;1.60;;;;;;;17.13;44.37;97835.75;5039133;28;20545;-72
2023/03/20 10:25:57;;;;;;;2.50;1.80;;;;;;;17.15;44.04;97831.94;5038085;28;20429;-71
2023/03/20 10:28:27;;;;;;;4.57;3.07;;;;;;;17.22;44.54;97841.78;5043272;28;20411;-72
2023/03/20 10:31:18;;;;;;;2.00;1.77;;;;;;;17.18;44.03;97841.31;5039492;28;20512;-71
2023/03/20 10:33:53;;;;;;;3.53;2.50;;;;;;;17.07;43.92;97839.09;5036426;28;20413;-71
2023/03/20 10:36:38;;;;;;;5.20;2.47;;;;;;;16.97;44.40;97840.19;5042256;28;20438;-72
2023/03/20 10:39:34;;;;;;;7.73;4.03;;;;;;;16.92;44.33;97839.84;5039556;28;20450;-72
2023/03/20 10:42:02;;;;;;;7.23;2.30;;;;;;;16.83;44.71;97836.44;5037143;28;20453;-71
2023/03/20 10:44:32;;;;;;;2.43;2.17;;;;;;;16.68;44.61;97846.16;5035883;28;20800;-70
2023/03/20 10:46:59;;;;;;;1.77;1.67;;;;;;;16.58;44.73;97839.25;5038561;28;20425;-71
2023/03/20 10:49:28;;;;;;;3.40;1.90;;;;;;;16.54;44.81;97840.63;5031044;28;20414;-71
2023/03/20 10:51:57;;;;;;;2.77;2.50;;;;;;;16.42;45.28;97832.25;5033100;28;20481;-71
2023/03/20 10:54:29;;;;;;;4.77;3.00;;;;;;;16.43;45.50;97831.25;5031752;28;20440;-72
2023/03/20 10:56:56;;;;;;;2.80;2.50;;;;;;;16.46;45.38;97827.44;5037764;28;21098;-70
2023/03/20 10:59:22;;;;;;;5.43;4.43;;;;;;;16.52;45.51;97825.91;5047951;28;20749;-72
2023/03/20 11:01:48;;;;;;;3.50;2.30;;;;;;;16.58;45.36;97817.28;5038804;28;20847;-71
2023/03/20 11:04:13;;;;;;;2.57;2.37;;;;;;;16.67;46.21;97818.84;5038814;28;20421;-72
2023/03/20 11:07:08;;;;;;;3.47;3.00;;;;;;;16.76;45.96;97824.13;5036457;28;20202;-70
2023/03/20 11:09:33;;;;;;;3.43;2.13;;;;;;;16.82;45.81;97821.56;5046383;28;20194;-72
2023/03/20 11:12:01;;;;;;;2.27;2.10;;;;;;;16.88;45.61;97817.41;5039363;28;20993;-71
2023/03/20 11:14:36;;;;;;;2.40;1.90;;;;;;;16.90;45.06;97825.97;5045869;28;20195;-72
2023/03/20 11:17:03;;;;;;;3.53;3.20;;;;;;;16.94;45.28;97823.81;5040366;28;20471;-72
2023/03/20 11:19:32;;;;;;;4.43;2.70;;;;;;;16.94;45.04;97813.22;5041960;28;20991;-73
2023/03/20 11:22:00;;;;;;;3.27;2.87;;;;;;;16.87;44.84;97824.50;5041920;28;20456;-71
2023/03/20 11:24:36;;;;;;;3.57;2.67;;;;;;;16.88;45.58;97825.34;5034627;28;20427;-72
2023/03/20 11:27:10;;;;;;;5.93;4.40;;;;;;;16.86;45.33;97825.50;5040866;28;20432;-72
2023/03/20 11:29:36;;;;;;;2.30;2.10;;;;;;;16.85;45.47;97830.97;5033853;28;20417;-72
2023/03/20 11:32:18;;;;;;;3.87;1.93;;;;;;;16.81;45.01;97829.69;5031434;28;20465;-71
2023/03/20 11:34:43;;;;;;;3.03;2.20;;;;;;;16.79;45.57;97824.56;5038195;28;20212;-72
2023/03/20 11:37:28;;;;;;;2.53;2.17;;;;;;;16.78;46.20;97825.56;5040740;28;20828;-71
2023/03/20 11:40:14;;;;;;;3.40;3.10;;;;;;;16.86;46.57;97824.69;5039924;28;20190;-71
2023/03/20 11:42:51;;;;;;;4.77;4.07;;;;;;;16.83;46.93;97819.75;5040414;28;20436;-73